Date,TemperatureHighF,TemperatureAvgF,TemperatureLowF,DewpointHighF,DewpointAvgF,DewpointLowF,HumidityHigh,HumidityAvg,HumidityLow,PressureMaxIn,PressureMinIn,WindSpeedMaxMPH,WindSpeedAvgMPH,GustSpeedMaxMPH,PrecipitationSumIn
2013-1-8,66,63,56,58,54,50,79,74,71,30.19,30.09,3,2,0,0.00
2013-1-9,68,66,63,66,65,61,98,94,92,30.19,30.11,3,1,0,0.00
2013-1-10,72,66,62,68,65,60,99,96,87,30.18,29.93,7,-56,0,0.00
2013-1-11,79,74,62,69,67,60,94,79,64,30.09,30.00,5,2,0,0.00
2013-1-12,76,73,69,71,68,65,98,85,72,30.05,29.92,5,-16,0,0.00
2013-1-13,76,73,72,71,70,69,92,88,81,29.94,29.89,3,2,0,0.00
2013-1-14,66,54,47,62,53,46,98,94,85,30.06,29.99,4,-88,0,0.00
2013-1-15,69,62,49,68,60,49,99,96,89,30.01,29.87,2,0,0,0.00
2013-1-16,48,46,42,48,44,40,99,95,90,30.00,29.93,4,-10,0,0.00
2013-1-17,51,42,36,40,36,33,96,81,52,30.29,29.98,11,4,0,0.00
2013-1-18,41,41,41,35,35,35,79,79,79,30.29,30.29,0,0,0,0.00
2013-1-19,52,45,41,45,42,39,93,87,77,30.21,30.19,0,-419,0,0.00
2013-1-20,45,39,36,43,33,-100,96,92,92,30.21,30.11,0,-88,0,0.00
2013-6-6,88,76,65,71,68,64,98,78,53,29.84,29.75,3,0,0,0.00
2013-6-7,85,75,68,72,69,67,96,82,56,29.92,29.79,3,0,0,0.00
2013-6-8,87,79,69,74,71,67,96,78,60,30.09,29.90,4,-15,0,0.00
2013-6-9,77,73,69,74,71,68,97,93,86,30.04,29.95,3,-21,0,0.00
2013-6-10,82,76,71,76,73,70,98,92,78,30.08,29.98,2,-7,0,0.00
2013-6-11,92,80,73,79,75,71,98,85,51,30.12,30.03,3,0,0,0.00
2013-6-12,93,82,73,78,74,71,98,80,51,30.11,30.03,1,0,0,0.00
2013-6-13,94,83,75,76,73,70,93,73,48,30.05,29.89,2,0,0,0.00
2013-6-14,92,82,76,76,67,-100,95,68,44,29.97,29.87,3,-45,0,0.00
2013-6-15,92,81,70,75,70,65,92,70,47,30.04,29.95,0,0,0,0.00
2013-6-16,91,81,76,79,76,73,97,85,55,30.07,30.00,2,0,0,0.00
2013-6-17,90,82,75,77,75,72,96,79,56,30.04,29.96,4,-13,0,0.00
2013-6-18,91,82,74,76,73,69,96,76,54,30.03,29.91,3,1,0,0.00
2013-6-19,86,78,70,74,72,69,98,83,62,30.05,29.96,3,0,0,0.00
2013-6-20,90,79,72,75,72,70,96,82,56,30.11,30.02,3,0,0,0.00
2013-6-22,89,85,79,75,72,68,83,67,52,30.14,30.03,2,0,0,0.00
2013-6-23,86,77,73,77,74,69,97,92,66,30.11,30.04,1,0,0,0.00
2013-6-24,88,79,73,79,74,71,98,88,58,30.18,30.09,0,0,0,0.00
2013-6-25,90,80,72,77,74,71,98,81,58,30.15,30.05,2,0,0,0.00
2013-6-26,89,80,74,78,75,73,97,84,62,30.09,29.99,3,0,0,0.00
2013-6-27,93,83,75,79,75,71,96,80,51,30.04,29.93,1,0,0,0.00
2013-6-28,94,85,78,79,77,74,96,78,55,29.95,29.78,3,-16,0,0.00
2013-6-29,74,74,74,72,72,71,94,93,91,29.75,29.75,0,0,0,0.00
2013-7-1,87,80,72,69,66,63,85,65,45,29.93,29.83,1,0,0,0.00
2013-7-2,91,78,68,71,68,66,93,73,45,30.02,29.91,1,0,0,0.00
2013-7-3,75,75,74,72,71,71,89,88,87,30.02,29.98,0,0,0,0.00
2013-7-4,79,78,78,75,75,75,90,90,89,29.97,29.97,0,0,6,0.00
2013-7-6,77,75,72,74,73,71,98,95,87,30.08,30.02,0,0,0,0.01
2013-7-7,78,75,73,77,74,71,98,97,90,30.13,30.03,3,0,0,0.00
2013-7-8,84,75,73,78,73,-100,99,96,76,30.19,30.10,3,0,0,0.00
2013-7-9,90,79,70,78,74,70,99,85,55,30.21,30.10,2,0,0,0.00
2013-7-10,89,77,73,79,72,-100,97,88,61,30.14,29.99,1,-22,0,0.00
2013-7-11,79,76,73,77,74,72,98,95,78,30.03,29.90,6,-15,0,0.00
2013-7-12,75,73,70,74,71,68,97,95,90,29.95,29.88,0,0,0,0.00
2013-7-13,90,76,69,77,72,68,98,88,62,29.99,29.88,1,0,0,0.00
2013-7-14,89,78,69,75,71,68,96,82,53,30.05,29.93,0,0,0,0.00
2013-7-15,86,78,74,76,74,73,98,89,69,30.14,30.04,0,0,0,0.00
2013-7-16,86,79,73,76,73,71,96,83,65,30.20,30.10,2,0,0,0.00
2013-7-17,91,80,73,76,73,71,96,79,55,30.23,30.12,0,0,0,0.00
2013-7-18,91,80,73,76,73,71,96,82,55,30.16,30.03,0,0,0,0.00
2013-7-19,86,78,72,76,73,71,97,87,62,30.09,29.98,2,0,0,0.00
2013-7-20,85,78,74,78,74,-100,99,90,69,30.03,29.94,1,0,0,0.00
2013-7-21,87,78,73,77,74,72,98,90,65,30.08,30.01,2,0,0,0.00
2013-7-22,84,75,72,78,73,71,97,93,77,30.09,30.02,2,-9,0,0.00
2013-7-23,90,81,72,78,75,71,98,84,61,30.06,29.93,2,0,0,0.00
2013-7-24,90,81,74,78,75,71,96,84,59,29.98,29.90,0,0,0,0.00
2013-7-25,90,80,72,76,73,71,97,81,59,30.03,29.89,0,0,0,0.00
2013-7-26,91,81,72,77,73,65,97,78,43,30.07,29.98,0,-21,0,0.00
2013-7-27,83,76,72,76,73,70,97,91,75,30.01,29.90,3,0,0,0.00
2013-7-28,88,79,71,78,74,70,97,86,63,30.02,29.88,0,0,0,0.00
2013-7-29,91,80,74,78,76,73,98,88,60,30.13,29.99,0,0,0,0.00
2013-7-30,89,79,75,80,76,74,98,90,62,30.17,30.11,0,-36,0,0.00
2013-7-31,91,83,76,78,76,74,94,79,59,30.12,30.00,0,0,0,0.00
2013-8-1,92,79,73,78,70,-100,96,86,58,30.03,29.93,0,-109,0,0.00
2013-8-2,91,81,73,79,64,-100,98,81,69,30.04,29.97,0,-232,0,0.00
2013-8-3,93,86,74,79,70,-100,98,68,46,30.08,30.01,0,-139,0,0.00
2013-8-4,95,85,77,77,75,72,96,74,48,30.10,29.98,0,-74,0,0.00
2013-8-5,94,80,74,78,75,72,97,84,54,30.06,29.97,0,0,0,0.00
2013-8-6,94,82,74,79,65,-100,98,78,54,30.03,29.92,0,-295,0,0.00
2013-8-7,93,81,74,79,74,-100,98,85,60,30.00,29.93,0,-88,0,0.00